Terminal Aerodrome Forecast
Issued by NWS

Home | Current Version | Previous Version | Text Only | Print | Product List | Glossary On
Versions: 1 2 3 4 5 6 7 8 9 10 11 12 13 14 15 16 17
516
FTUS46 KSEW 161120
TAFHQM
TAF
KHQM 161120Z 1612/1712 27008KT P6SM FEW050 BKN150
     FM161600 32004KT P6SM BKN025 OVC050
     FM161900 21006KT P6SM -RA OVC025
     FM170500 15010KT 4SM -RA BR OVC015=

USA.gov is the U.S. government's official web portal to all federal, state and local government web resources and services.